createdAt,value
2023-04-15T00:03:01.657Z,10.67
2023-04-15T00:13:09.672Z,10.65
2023-04-15T00:23:17.469Z,10.62
2023-04-15T00:33:25.940Z,10.62
2023-04-15T00:43:32.980Z,10.63
2023-04-15T00:53:40.267Z,10.56
2023-04-15T01:03:47.664Z,10.43
2023-04-15T01:13:57.003Z,10.41
2023-04-15T01:24:03.196Z,10.43
2023-04-15T01:34:10.641Z,10.43
2023-04-15T01:44:17.844Z,10.44
2023-04-15T01:54:25.481Z,10.49
2023-04-15T02:04:32.940Z,10.49
2023-04-15T02:14:40.641Z,10.40
2023-04-15T02:24:47.138Z,10.38
2023-04-15T02:34:54.547Z,10.37
2023-04-15T02:45:01.670Z,10.44
2023-04-15T02:55:10.558Z,10.42
2023-04-15T03:05:17.697Z,10.45
2023-04-15T03:15:23.571Z,10.47
2023-04-15T03:25:30.877Z,10.28
2023-04-15T03:35:38.005Z,10.16
2023-04-15T03:45:45.120Z,10.14
2023-04-15T03:55:52.585Z,10.14
2023-04-15T04:05:59.614Z,10.17
2023-04-15T04:16:07.343Z,10.16
2023-04-15T04:26:15.010Z,10.21
2023-04-15T04:36:21.968Z,10.29
2023-04-15T04:46:29.081Z,10.34
2023-04-15T04:56:36.038Z,10.55
2023-04-15T05:06:43.005Z,10.91
2023-04-15T05:16:49.894Z,11.04
2023-04-15T05:26:56.258Z,10.97
2023-04-15T05:37:03.533Z,10.83
2023-04-15T05:47:11.132Z,10.97
2023-04-15T05:57:18.182Z,10.96
2023-04-15T06:07:25.647Z,10.71
2023-04-15T06:17:32.778Z,10.69
2023-04-15T06:27:40.024Z,10.69
2023-04-15T06:37:47.326Z,10.72
2023-04-15T06:47:54.236Z,10.84
2023-04-15T06:58:00.801Z,11.20
2023-04-15T07:08:05.563Z,11.52
2023-04-15T07:18:12.341Z,11.69
2023-04-15T07:28:18.806Z,11.70
2023-04-15T07:38:25.933Z,11.86
2023-04-15T07:48:34.143Z,12.06
2023-04-15T07:58:40.594Z,12.36
2023-04-15T08:08:47.767Z,12.84
2023-04-15T08:18:57.792Z,13.20
2023-04-15T08:29:05.216Z,13.94
2023-04-15T08:39:11.581Z,14.57
2023-04-15T08:49:19.141Z,14.94
2023-04-15T08:59:25.119Z,15.49
2023-04-15T09:09:31.520Z,15.87
2023-04-15T09:19:38.770Z,16.02
2023-04-15T09:29:46.297Z,15.87
2023-04-15T09:39:52.206Z,15.54
2023-04-15T09:50:03.061Z,15.77
2023-04-15T10:00:12.093Z,15.96
2023-04-15T10:10:20.211Z,16.49
2023-04-15T10:20:28.466Z,16.35
2023-04-15T10:30:33.576Z,16.30
2023-04-15T10:40:42.497Z,16.19
2023-04-15T10:50:57.753Z,16.48
2023-04-15T11:01:05.766Z,16.03
2023-04-15T11:11:11.908Z,15.89
2023-04-15T11:21:19.113Z,16.06
2023-04-15T11:31:28.816Z,15.83
2023-04-15T11:41:36.935Z,15.58
2023-04-15T11:51:44.165Z,15.29
2023-04-15T12:01:52.696Z,14.90
2023-04-15T12:12:00.204Z,14.45
2023-04-15T12:22:10.261Z,13.96
2023-04-15T12:32:15.666Z,13.64
2023-04-15T12:42:23.074Z,13.60
2023-04-15T12:52:30.476Z,13.65
2023-04-15T13:02:38.011Z,13.98
2023-04-15T13:12:47.010Z,14.60
2023-04-15T13:22:55.209Z,14.60
2023-04-15T13:33:02.333Z,14.73
2023-04-15T13:43:09.796Z,14.94
2023-04-15T13:53:17.090Z,14.68
2023-04-15T14:03:24.332Z,14.45
2023-04-15T14:13:31.731Z,14.07
2023-04-15T14:23:38.914Z,13.63
2023-04-15T14:33:45.427Z,13.32
2023-04-15T14:43:52.469Z,12.90
2023-04-15T14:53:58.930Z,12.56
2023-04-15T15:04:06.560Z,12.26
2023-04-15T15:14:13.677Z,12.10
2023-04-15T15:24:20.716Z,12.05
2023-04-15T15:34:26.766Z,12.07
2023-04-15T15:44:34.679Z,12.09
2023-04-15T15:54:42.827Z,12.15
2023-04-15T16:04:50.581Z,12.06
2023-04-15T16:14:57.764Z,12.03
2023-04-15T16:25:05.227Z,12.10
2023-04-15T16:35:12.948Z,12.13
2023-04-15T16:45:20.663Z,12.14
2023-04-15T16:55:28.558Z,12.12
2023-04-15T17:05:35.982Z,12.07
2023-04-15T17:15:43.420Z,11.92
2023-04-15T17:25:51.688Z,11.68
2023-04-15T17:36:00.298Z,11.38
2023-04-15T17:46:07.659Z,11.10
2023-04-15T17:56:14.737Z,10.89
2023-04-15T18:06:21.159Z,10.78
2023-04-15T18:16:28.735Z,10.50
2023-04-15T18:26:36.069Z,10.16
2023-04-15T18:36:43.208Z,9.93
2023-04-15T18:46:51.135Z,9.82
2023-04-15T18:56:58.415Z,9.71
2023-04-15T19:07:04.876Z,9.46
2023-04-15T19:17:11.891Z,9.16
2023-04-15T19:27:19.190Z,9.09
2023-04-15T19:37:26.465Z,9.10
2023-04-15T19:47:34.448Z,9.04
2023-04-15T19:57:42.018Z,8.82
2023-04-15T20:07:48.606Z,8.61
2023-04-15T20:17:56.287Z,8.55
2023-04-15T20:28:03.808Z,8.56
2023-04-15T20:38:10.882Z,8.58
2023-04-15T20:48:19.401Z,8.40
2023-04-15T20:58:26.079Z,8.06
2023-04-15T21:08:33.229Z,7.77
2023-04-15T21:18:40.413Z,7.73
2023-04-15T21:28:47.810Z,7.83
2023-04-15T21:38:55.162Z,7.93
2023-04-15T21:49:00.038Z,7.81
2023-04-15T21:59:07.095Z,7.63
2023-04-15T22:09:14.631Z,7.44
2023-04-15T22:19:21.854Z,7.22
2023-04-15T22:29:29.065Z,7.20
2023-04-15T22:39:36.587Z,7.26
2023-04-15T22:49:44.936Z,7.31
2023-04-15T22:59:51.084Z,7.23
2023-04-15T23:09:57.515Z,7.13
2023-04-15T23:20:04.979Z,7.23
2023-04-15T23:30:12.609Z,7.33
2023-04-15T23:40:20.046Z,7.40
2023-04-15T23:50:28.032Z,7.49
